Time;durP1;ratioP1;P1;durP2;ratioP2;P2;SDS_P1;SDS_P2;PMS_P1;PMS_P2;Temp;Humidity;BMP_temperature;BMP_pressure;BME280_temperature;BME280_humidity;BME280_pressure;Samples;Min_cycle;Max_cycle;Signal;HPM_P1;HPM_P2
2021/05/30 00:04:28;;;;;;;5.03;1.80;;;;;;;10.16;79.15;101476.78;5003746;58;1138483;-76
2021/05/30 00:09:35;;;;;;;1.37;1.27;;;;;;;10.03;78.69;101483.76;5003933;57;1138722;-79
2021/05/30 00:14:42;;;;;;;3.12;2.02;;;;;;;9.90;78.77;101487.23;5020721;58;1139261;-75
2021/05/30 00:19:48;;;;;;;2.00;1.60;;;;;;;9.83;78.83;101483.61;4910938;57;1136880;-77
2021/05/30 00:24:54;;;;;;;2.10;1.90;;;;;;;9.74;78.97;101488.13;5004765;58;1137079;-79
2021/05/30 00:30:00;;;;;;;8.08;3.15;;;;;;;9.73;79.36;101487.75;5004729;58;1136944;-74
2021/05/30 00:35:07;;;;;;;3.43;2.33;;;;;;;9.76;79.37;101488.89;5004427;58;1137385;-80
2021/05/30 00:40:13;;;;;;;2.40;1.90;;;;;;;9.75;78.83;101485.88;5004378;58;1137422;-76
2021/05/30 00:45:19;;;;;;;3.07;2.50;;;;;;;9.75;78.92;101488.52;5004460;58;1137102;-80
2021/05/30 00:50:26;;;;;;;2.70;2.47;;;;;;;9.72;78.95;101497.94;5004245;58;1136920;-74
2021/05/30 00:55:31;;;;;;;10.83;2.33;;;;;;;9.61;78.59;101490.27;5004683;58;1136850;-79
2021/05/30 01:00:37;;;;;;;4.73;2.07;;;;;;;9.44;78.26;101488.59;5004196;58;1138913;-74
2021/05/30 01:05:43;;;;;;;5.63;2.40;;;;;;;9.26;78.41;101493.59;5003735;58;1146145;-83
2021/05/30 01:10:49;;;;;;;3.75;2.75;;;;;;;9.11;78.61;101487.39;5011869;58;1137595;-78
2021/05/30 01:15:55;;;;;;;12.78;2.72;;;;;;;8.90;78.93;101482.83;5016482;58;1136805;-80
2021/05/30 01:21:01;;;;;;;3.07;2.50;;;;;;;8.90;79.37;101480.66;5015861;57;1139214;-77
2021/05/30 01:26:08;;;;;;;6.00;3.07;;;;;;;8.78;79.20;101480.41;5015911;57;1136789;-83
2021/05/30 01:31:14;;;;;;;3.57;2.57;;;;;;;8.77;79.64;101486.61;5015750;57;1136793;-83
2021/05/30 01:36:20;;;;;;;4.40;2.87;;;;;;;8.75;79.56;101484.98;5015879;57;1137038;-75
2021/05/30 01:41:26;;;;;;;4.53;2.47;;;;;;;8.67;79.24;101485.88;5016150;57;1137352;-76
2021/05/30 01:46:32;;;;;;;6.90;3.00;;;;;;;8.67;79.57;101488.06;5016028;57;1136833;-72
2021/05/30 01:51:38;;;;;;;7.87;3.43;;;;;;;8.73;79.59;101498.72;5015830;57;1137006;-77
2021/05/30 01:56:57;;;;;;;5.80;2.83;;;;;;;8.63;79.54;101486.98;5015695;57;1136966;-80
2021/05/30 02:02:06;;;;;;;11.37;3.30;;;;;;;8.56;79.52;101498.30;5015595;57;1136845;-80
2021/05/30 02:07:12;;;;;;;6.40;4.20;;;;;;;8.37;79.77;101497.14;5015550;57;1138957;-78
2021/05/30 02:12:20;;;;;;;4.30;3.60;;;;;;;8.25;80.53;101494.27;5008624;57;1137181;-80
2021/05/30 02:17:26;;;;;;;6.60;3.47;;;;;;;8.39;80.74;101506.29;5003990;58;1136800;-77
2021/05/30 02:22:33;;;;;;;8.83;4.27;;;;;;;8.49;80.76;101507.49;5003892;58;1136991;-78
2021/05/30 02:27:40;;;;;;;7.47;3.97;;;;;;;8.42;80.29;101509.59;5004420;58;1136895;-74
2021/05/30 02:32:48;;;;;;;6.93;3.90;;;;;;;8.43;80.67;101515.71;5004007;58;1137117;-84
2021/05/30 02:37:54;;;;;;;5.15;4.10;;;;;;;8.48;80.55;101526.88;5003830;58;1137227;-82
2021/05/30 02:42:59;;;;;;;7.87;4.22;;;;;;;8.50;80.41;101538.20;5004231;58;1136814;-72
2021/05/30 02:48:05;;;;;;;5.80;3.77;;;;;;;8.43;79.98;101535.48;5003889;57;1136395;-76
2021/05/30 02:53:11;;;;;;;9.90;3.93;;;;;;;8.35;80.20;101542.95;5003374;58;1136304;-75
2021/05/30 02:58:17;;;;;;;7.15;4.03;;;;;;;8.25;80.24;101539.07;5003688;58;1136975;-77
2021/05/30 03:03:26;;;;;;;5.53;3.33;;;;;;;8.18;80.43;101544.26;5002853;57;1136356;-79
2021/05/30 03:08:32;;;;;;;4.17;3.13;;;;;;;8.19;80.84;101549.91;5052493;57;1136474;-77
2021/05/30 03:13:38;;;;;;;4.83;3.27;;;;;;;8.22;81.14;101553.25;5066592;57;1136468;-74
2021/05/30 03:18:46;;;;;;;4.55;3.52;;;;;;;8.21;81.57;101559.45;5080241;57;1136829;-75
2021/05/30 03:23:51;;;;;;;7.53;3.60;;;;;;;8.26;81.87;101561.83;5066753;57;1136608;-82
2021/05/30 03:28:57;;;;;;;3.83;3.33;;;;;;;8.38;81.80;101554.66;5066307;57;1136748;-74
2021/05/30 03:34:03;;;;;;;3.92;3.50;;;;;;;8.37;81.74;101564.36;5066133;57;1136793;-78
2021/05/30 03:39:10;;;;;;;5.60;4.07;;;;;;;8.26;81.80;101569.27;5066460;57;1136576;-82
2021/05/30 03:44:16;;;;;;;6.07;4.63;;;;;;;8.29;82.21;101574.86;5066342;57;1136324;-81
2021/05/30 03:49:22;;;;;;;5.73;4.27;;;;;;;8.29;82.21;101574.86;5065809;57;1137018;-77
2021/05/30 03:54:27;;;;;;;5.50;4.00;;;;;;;8.36;82.44;101573.66;5065957;57;1136305;-75
2021/05/30 03:59:33;;;;;;;13.83;4.30;;;;;;;8.39;82.28;101577.46;5066734;57;1136340;-80
2021/05/30 04:04:39;;;;;;;4.77;4.17;;;;;;;8.47;81.97;101573.95;5066673;57;1138403;-81
2021/05/30 04:09:46;;;;;;;7.70;4.37;;;;;;;8.45;82.20;101580.61;5083953;57;1136400;-78
2021/05/30 04:14:52;;;;;;;4.53;4.08;;;;;;;8.44;81.98;101582.01;5066911;57;1136376;-83
2021/05/30 04:19:58;;;;;;;7.70;5.58;;;;;;;8.33;81.84;101574.66;5067030;57;1137005;-77
2021/05/30 04:25:10;;;;;;;7.15;4.37;;;;;;;8.38;82.74;101582.34;5067264;57;1136582;-79
2021/05/30 04:30:18;;;;;;;5.20;4.20;;;;;;;8.50;82.72;101586.13;5066781;57;1136448;-78
2021/05/30 04:35:24;;;;;;;6.40;4.20;;;;;;;8.61;82.66;101585.94;5066816;57;1136904;-78
2021/05/30 04:40:30;;;;;;;9.10;6.03;;;;;;;8.68;82.24;101587.34;5066694;57;1136843;-74
2021/05/30 04:45:35;;;;;;;4.60;4.17;;;;;;;8.75;82.77;101588.70;5071808;57;1136891;-75
2021/05/30 04:50:41;;;;;;;9.20;3.87;;;;;;;8.85;82.85;101586.91;5086837;57;1136884;-79
2021/05/30 04:55:49;;;;;;;6.37;4.47;;;;;;;8.96;82.85;101580.59;5086834;57;1136835;-76
2021/05/30 05:00:55;;;;;;;5.15;3.35;;;;;;;9.07;82.93;101583.48;5086954;57;1136830;-74
2021/05/30 05:06:02;;;;;;;6.15;4.25;;;;;;;9.19;83.10;101580.17;5086874;57;1136804;-79
2021/05/30 05:11:09;;;;;;;7.60;3.57;;;;;;;9.26;83.47;101580.23;5086886;57;1137011;-74
2021/05/30 05:16:16;;;;;;;7.87;4.47;;;;;;;9.43;83.58;101584.58;5086903;57;1137107;-74
2021/05/30 05:21:22;;;;;;;5.67;4.13;;;;;;;9.50;83.09;101585.45;5086733;57;1136812;-78
2021/05/30 05:26:27;;;;;;;4.00;3.70;;;;;;;9.60;83.47;101587.13;5086633;57;1137333;-77
2021/05/30 05:31:33;;;;;;;4.03;3.63;;;;;;;9.68;83.11;101586.21;5086636;57;1137132;-78
2021/05/30 05:36:38;;;;;;;6.67;3.90;;;;;;;9.69;82.88;101585.74;5086685;57;1136838;-81
2021/05/30 05:41:44;;;;;;;6.73;4.37;;;;;;;9.78;83.04;101584.73;5086765;57;1136974;-81
2021/05/30 05:46:50;;;;;;;3.97;2.77;;;;;;;9.86;83.49;101588.28;5086576;57;1136840;-75
2021/05/30 05:51:56;;;;;;;4.83;4.20;;;;;;;9.95;83.27;101585.56;5086770;57;1137046;-72
2021/05/30 05:57:02;;;;;;;9.00;4.20;;;;;;;10.09;83.51;101593.06;5086325;57;1136790;-79
2021/05/30 06:02:08;;;;;;;8.50;4.60;;;;;;;10.31;83.89;101595.81;5086337;57;1139041;-75
2021/05/30 06:07:14;;;;;;;7.23;3.90;;;;;;;10.54;83.91;101597.45;5085967;57;1138878;-72
2021/05/30 06:12:20;;;;;;;5.43;3.37;;;;;;;10.75;83.03;101590.02;5054674;57;1139194;-74
2021/05/30 06:17:26;;;;;;;11.20;4.40;;;;;;;10.77;82.38;101598.72;5085607;57;1139171;-72
2021/05/30 06:22:33;;;;;;;14.60;4.20;;;;;;;10.89;82.93;101595.78;5085504;57;1140970;-72
2021/05/30 06:27:39;;;;;;;5.17;3.13;;;;;;;11.05;82.64;101600.98;5085707;57;1141192;-75
2021/05/30 06:32:45;;;;;;;7.00;2.83;;;;;;;11.25;82.93;101605.88;5061998;57;1139129;-73
2021/05/30 06:37:51;;;;;;;10.00;3.80;;;;;;;11.42;82.09;101612.77;5059080;57;1138936;-76
2021/05/30 06:42:57;;;;;;;10.70;3.37;;;;;;;11.58;82.37;101616.13;5034790;57;1141108;-74
2021/05/30 06:48:02;;;;;;;4.45;3.05;;;;;;;11.73;81.75;101618.27;5035802;57;1141361;-74
2021/05/30 06:53:08;;;;;;;7.63;2.93;;;;;;;11.87;81.60;101612.47;5034689;57;1139036;-74
2021/05/30 06:58:14;;;;;;;4.13;3.37;;;;;;;12.05;81.00;101606.91;5037615;57;1138577;-74
2021/05/30 07:03:21;;;;;;;3.75;3.45;;;;;;;12.16;81.48;101609.22;5065993;57;1138692;-72
2021/05/30 07:08:27;;;;;;;5.40;3.40;;;;;;;12.39;81.24;101616.94;5065960;57;1138597;-74
2021/05/30 07:13:33;;;;;;;3.40;3.10;;;;;;;12.46;78.88;101606.77;5066171;57;1138607;-73
2021/05/30 07:18:40;;;;;;;6.63;2.83;;;;;;;12.64;80.59;101611.67;5065328;57;1138856;-76
2021/05/30 07:23:46;;;;;;;6.53;4.20;;;;;;;12.80;78.18;101610.14;5064368;57;1139185;-75
2021/05/30 07:28:53;;;;;;;1.80;1.60;;;;;;;12.93;78.81;101613.63;4919205;58;1138733;-74
2021/05/30 07:33:59;;;;;;;3.80;2.95;;;;;;;13.11;76.95;101620.79;5085410;57;1138820;-74
2021/05/30 07:39:06;;;;;;;4.05;2.80;;;;;;;13.26;77.40;101625.05;5085710;57;1138848;-75
2021/05/30 07:44:11;;;;;;;2.73;2.20;;;;;;;13.49;76.98;101616.73;5085681;57;1138940;-79
2021/05/30 07:49:18;;;;;;;2.73;2.53;;;;;;;13.72;76.57;101623.91;5085657;57;1138585;-77
2021/05/30 07:54:25;;;;;;;2.60;1.90;;;;;;;13.91;76.79;101618.53;5084884;57;1139025;-75
2021/05/30 07:59:31;;;;;;;2.83;2.30;;;;;;;14.07;74.38;101614.62;5084894;57;1138752;-74
2021/05/30 08:04:37;;;;;;;5.70;2.50;;;;;;;14.28;75.69;101621.48;5084414;57;1138735;-76
2021/05/30 08:09:43;;;;;;;2.33;2.20;;;;;;;14.41;75.18;101624.94;5073089;57;1138637;-73
2021/05/30 08:14:50;;;;;;;2.90;2.10;;;;;;;14.58;74.36;101635.64;4999254;57;1147873;-74
2021/05/30 08:19:56;;;;;;;2.50;2.30;;;;;;;14.80;73.59;101636.17;4994676;56;1138611;-78
2021/05/30 08:25:02;;;;;;;4.22;2.30;;;;;;;14.97;74.03;101626.87;5098335;56;1138683;-79
2021/05/30 08:30:13;;;;;;;2.20;1.90;;;;;;;14.97;72.17;101630.87;5098720;55;1138628;-77
2021/05/30 08:35:19;;;;;;;3.33;2.50;;;;;;;15.00;72.29;101635.45;5098267;55;1138423;-75
2021/05/30 08:40:25;;;;;;;2.40;1.83;;;;;;;15.27;73.54;101639.59;5098692;55;1138285;-75
2021/05/30 08:45:31;;;;;;;3.00;2.13;;;;;;;15.48;72.73;101629.86;5097821;55;1138918;-73
2021/05/30 08:50:39;;;;;;;2.87;1.60;;;;;;;15.77;71.18;101627.52;5098695;56;1138941;-78
2021/05/30 08:55:44;;;;;;;4.40;1.67;;;;;;;15.90;70.53;101632.70;5097960;55;1138604;-75
2021/05/30 09:01:12;;;;;;;2.07;1.87;;;;;;;16.04;70.34;101637.25;5103476;55;1138750;-76
2021/05/30 09:06:20;;;;;;;1.60;1.50;;;;;;;16.31;71.55;101641.29;5090963;56;1138621;-78
2021/05/30 09:11:45;;;;;;;2.72;2.05;;;;;;;16.28;65.21;101637.05;5098699;56;1138665;-78
2021/05/30 09:17:04;;;;;;;1.62;1.52;;;;;;;16.20;69.57;101640.83;5153547;56;1139027;-79
2021/05/30 09:22:30;;;;;;;1.43;1.33;;;;;;;16.40;65.89;101648.03;5124384;57;1138755;-75
2021/05/30 09:27:40;;;;;;;3.73;2.00;;;;;;;16.62;67.73;101630.20;5136377;56;1138911;-76
2021/05/30 09:33:03;;;;;;;3.20;2.20;;;;;;;16.94;67.38;101628.80;5135835;56;1138907;-75
2021/05/30 09:38:14;;;;;;;1.22;1.10;;;;;;;17.15;67.06;101627.75;5136573;56;1138920;-79
2021/05/30 09:43:28;;;;;;;1.77;1.67;;;;;;;17.05;62.55;101620.68;5136373;56;1138625;-78
2021/05/30 09:48:38;;;;;;;4.97;1.93;;;;;;;16.78;64.05;101634.13;5101471;56;1138925;-77
2021/05/30 09:53:48;;;;;;;4.63;1.90;;;;;;;17.10;65.01;101630.00;5102107;56;1138927;-77
2021/05/30 09:58:56;;;;;;;2.30;1.70;;;;;;;17.25;62.92;101636.33;5089957;56;1139028;-77
2021/05/30 10:04:02;;;;;;;2.08;1.30;;;;;;;17.47;64.10;101642.30;5089733;56;1139116;-76
2021/05/30 10:09:08;;;;;;;3.98;1.20;;;;;;;17.74;63.25;101630.98;5090031;56;1139110;-72
2021/05/30 10:14:14;;;;;;;1.20;0.87;;;;;;;18.03;63.33;101620.30;5089652;56;1139380;-73
2021/05/30 10:19:31;;;;;;;1.27;1.00;;;;;;;18.33;60.04;101640.77;5089685;56;1139001;-78
2021/05/30 10:24:45;;;;;;;4.77;1.17;;;;;;;18.24;56.77;101639.77;5092965;56;1138846;-79
2021/05/30 10:30:13;;;;;;;0.73;0.70;;;;;;;18.51;59.44;101636.34;5098465;56;1138895;-78
2021/05/30 10:35:27;;;;;;;1.73;1.00;;;;;;;18.57;59.08;101637.63;5100449;56;1138562;-77
2021/05/30 10:40:38;;;;;;;0.83;0.77;;;;;;;18.50;58.21;101644.03;5098550;56;1138462;-76
2021/05/30 10:45:51;;;;;;;0.90;0.90;;;;;;;18.64;57.43;101637.94;5098456;56;1138571;-77
2021/05/30 10:56:32;;;;;;;2.42;0.95;;;;;;;18.90;54.88;101620.23;5098213;56;1138794;-78
2021/05/30 11:01:41;;;;;;;1.40;1.28;;;;;;;19.01;55.77;101621.38;5098542;56;1138597;-78
2021/05/30 11:06:49;;;;;;;2.57;1.67;;;;;;;18.91;55.87;101620.09;5098756;56;1138828;-75
2021/05/30 11:12:28;;;;;;;1.43;1.30;;;;;;;19.01;56.94;101609.31;5099483;56;1138681;-79
2021/05/30 11:17:46;;;;;;;1.30;1.20;;;;;;;19.24;56.67;101614.66;5099051;56;1139158;-76
2021/05/30 11:22:57;;;;;;;1.43;1.23;;;;;;;19.28;54.69;101611.16;5111371;56;1139077;-78
2021/05/30 11:28:10;;;;;;;2.45;1.30;;;;;;;19.40;48.62;101598.42;5118130;56;1138924;-75
2021/05/30 11:33:29;;;;;;;1.52;1.42;;;;;;;19.59;54.38;101613.07;5122869;56;1138833;-76
2021/05/30 11:38:44;;;;;;;4.03;1.27;;;;;;;19.78;52.25;101608.92;5123609;56;1138911;-81
2021/05/30 11:44:13;;;;;;;2.50;1.10;;;;;;;19.95;53.54;101609.94;5123184;56;1138869;-75
2021/05/30 11:49:29;;;;;;;2.60;1.30;;;;;;;20.03;52.57;101609.49;5123292;56;1138897;-77
2021/05/30 11:54:52;;;;;;;8.35;6.67;;;;;;;19.98;52.52;101614.50;5122937;56;1139140;-77
2021/05/30 12:00:00;;;;;;;7.58;5.00;;;;;;;19.66;50.98;101614.17;5120687;56;1138855;-76
2021/05/30 12:05:14;;;;;;;2.10;1.95;;;;;;;19.18;49.53;101616.59;5124225;56;1139155;-78
2021/05/30 12:10:20;;;;;;;1.93;1.77;;;;;;;18.83;52.27;101626.66;5123401;56;1138658;-79
2021/05/30 12:15:28;;;;;;;1.87;1.77;;;;;;;18.69;52.82;101627.12;5123905;56;1138369;-75
2021/05/30 12:20:37;;;;;;;2.20;1.70;;;;;;;18.74;53.51;101622.67;5123354;56;1139125;-77
2021/05/30 12:26:01;;;;;;;2.30;1.55;;;;;;;18.92;54.10;101618.25;5136670;56;1138472;-79
2021/05/30 12:31:22;;;;;;;4.33;1.53;;;;;;;19.31;53.26;101613.55;5131805;56;1139175;-78
2021/05/30 12:36:37;;;;;;;1.65;1.55;;;;;;;19.58;53.44;101611.38;5122820;56;1138873;-77
2021/05/30 12:41:49;;;;;;;2.47;2.25;;;;;;;19.69;53.27;101610.34;5120669;56;1138494;-76
2021/05/30 12:47:10;;;;;;;2.40;1.47;;;;;;;19.80;53.39;101604.75;5129710;56;1139099;-77
2021/05/30 12:52:18;;;;;;;1.30;1.20;;;;;;;19.55;50.03;101595.11;5131746;56;1138965;-76
2021/05/30 12:57:40;;;;;;;4.53;1.52;;;;;;;19.55;52.71;101590.23;5128242;56;1139489;-72
2021/05/30 13:02:56;;;;;;;3.70;1.53;;;;;;;19.75;51.29;101588.24;5126943;56;1139142;-78
2021/05/30 13:08:16;;;;;;;2.10;1.77;;;;;;;19.76;51.33;101587.25;5121840;56;1139208;-77
2021/05/30 13:13:30;;;;;;;5.30;2.15;;;;;;;19.71;52.56;101585.55;5127220;56;1139302;-73
2021/05/30 13:18:55;;;;;;;15.43;3.70;;;;;;;19.71;52.56;101585.55;5117867;56;1139214;-75
2021/05/30 13:24:10;;;;;;;4.72;2.35;;;;;;;19.70;51.76;101580.67;5126594;56;1141294;-78
2021/05/30 13:29:25;;;;;;;4.12;3.45;;;;;;;19.65;51.54;101576.25;5130036;55;1139249;-76
2021/05/30 13:34:31;;;;;;;7.92;2.67;;;;;;;19.66;50.21;101570.73;5131131;55;1139020;-75
2021/05/30 13:39:37;;;;;;;5.33;2.87;;;;;;;19.47;50.70;101569.48;5131588;55;1138991;-77
2021/05/30 13:44:43;;;;;;;3.15;2.77;;;;;;;19.36;49.90;101561.65;5134749;55;1139077;-77
2021/05/30 13:49:53;;;;;;;4.67;2.62;;;;;;;19.14;49.92;101562.89;5097512;56;1139152;-73
2021/05/30 13:54:56;;;;;;;2.42;2.22;;;;;;;19.02;51.47;101564.08;5092324;56;1138562;-77
2021/05/30 14:00:02;;;;;;;2.35;1.77;;;;;;;19.07;51.83;101557.79;5097182;56;1138548;-77
2021/05/30 14:05:12;;;;;;;2.13;1.80;;;;;;;19.17;50.40;101549.19;5095703;56;1138676;-76
2021/05/30 14:10:18;;;;;;;3.45;2.25;;;;;;;19.32;51.05;101548.19;5097200;56;1138670;-76
2021/05/30 14:15:25;;;;;;;4.65;1.57;;;;;;;19.55;51.21;101537.41;5097180;56;1138418;-77
2021/05/30 14:20:33;;;;;;;2.35;1.98;;;;;;;19.63;50.78;101538.82;5097102;56;1138503;-74
2021/05/30 14:25:41;;;;;;;7.47;2.45;;;;;;;19.59;50.82;101539.27;5097158;56;1138625;-76
2021/05/30 14:30:46;;;;;;;3.87;1.67;;;;;;;19.77;51.83;101530.73;5097404;56;1138880;-77
2021/05/30 14:35:52;;;;;;;2.27;1.62;;;;;;;20.08;51.61;101535.19;5097881;56;1138570;-76
2021/05/30 14:40:57;;;;;;;2.58;1.65;;;;;;;20.32;50.26;101526.45;5077779;56;1138446;-79
2021/05/30 14:46:03;;;;;;;4.90;1.60;;;;;;;20.48;48.27;101521.20;5097701;56;1138802;-75
2021/05/30 14:51:09;;;;;;;1.87;1.70;;;;;;;20.62;49.88;101524.65;5097227;56;1138610;-78
2021/05/30 14:56:16;;;;;;;2.10;1.37;;;;;;;20.80;49.34;101521.89;5081755;56;1138646;-76
2021/05/30 15:01:22;;;;;;;3.42;1.75;;;;;;;20.91;47.57;101519.44;5098544;56;1138777;-76
2021/05/30 15:06:28;;;;;;;4.22;1.80;;;;;;;20.72;46.86;101512.45;5097615;56;1138781;-76
2021/05/30 15:11:36;;;;;;;3.27;1.50;;;;;;;20.47;45.58;101504.73;5096864;56;1138583;-80
2021/05/30 15:16:43;;;;;;;3.02;1.57;;;;;;;19.96;45.04;101513.11;5097611;56;1138469;-84
2021/05/30 15:21:51;;;;;;;3.65;1.75;;;;;;;19.64;47.14;101510.98;5097448;56;1138511;-83
2021/05/30 15:26:58;;;;;;;2.02;1.80;;;;;;;19.59;47.83;101515.12;5101591;56;1138895;-81
2021/05/30 15:32:04;;;;;;;4.72;2.20;;;;;;;19.58;47.90;101507.56;5112873;55;1139017;-81
2021/05/30 15:37:10;;;;;;;5.22;2.52;;;;;;;19.63;48.60;101499.91;5164772;55;1139235;-85
2021/05/30 15:42:16;;;;;;;11.35;5.55;;;;;;;19.80;48.67;101504.08;5183291;55;1139025;-80
2021/05/30 15:47:22;;;;;;;3.02;2.00;;;;;;;19.92;48.02;101496.95;5183413;55;1141297;-76
2021/05/30 15:52:29;;;;;;;2.55;2.05;;;;;;;20.16;48.04;101488.26;5182634;55;1139169;-82
2021/05/30 15:57:35;;;;;;;2.35;2.10;;;;;;;20.34;47.36;101488.17;5184335;55;1139143;-80
2021/05/30 16:02:41;;;;;;;2.52;2.33;;;;;;;20.39;47.12;101488.59;5183788;55;1139283;-82
2021/05/30 16:07:46;;;;;;;2.58;1.72;;;;;;;20.47;47.09;101487.80;5184199;55;1139062;-78
2021/05/30 16:12:52;;;;;;;1.67;1.57;;;;;;;20.53;46.91;101485.30;5183598;55;1139119;-79
2021/05/30 16:17:59;;;;;;;1.95;1.70;;;;;;;20.61;46.36;101482.67;5194282;55;1139182;-77
2021/05/30 16:23:06;;;;;;;5.80;2.65;;;;;;;20.65;46.05;101480.48;5183650;55;1138916;-75
2021/05/30 16:28:12;;;;;;;5.67;2.22;;;;;;;20.71;45.45;101471.28;5184008;55;1139049;-74
2021/05/30 16:33:18;;;;;;;7.53;2.20;;;;;;;20.62;45.97;101470.08;5183561;55;1138955;-79
2021/05/30 16:38:24;;;;;;;4.37;2.08;;;;;;;20.56;45.62;101470.20;5183851;55;1138848;-78
2021/05/30 16:43:31;;;;;;;3.37;2.58;;;;;;;20.49;44.90;101475.02;5183130;55;1138913;-79
2021/05/30 16:48:36;;;;;;;3.47;1.82;;;;;;;20.34;45.72;101464.84;5183822;55;1138907;-73
2021/05/30 16:53:42;;;;;;;7.55;3.12;;;;;;;20.31;46.59;101474.59;5183488;55;1138897;-77
2021/05/30 16:58:48;;;;;;;6.03;3.85;;;;;;;20.30;46.31;101465.34;5183832;55;1138792;-79
2021/05/30 17:03:54;;;;;;;6.05;2.80;;;;;;;20.18;46.23;101470.61;5183252;55;1138643;-80
2021/05/30 17:09:00;;;;;;;11.75;5.47;;;;;;;20.04;45.55;101472.03;5164302;55;1139106;-77
2021/05/30 17:14:07;;;;;;;13.55;6.47;;;;;;;19.92;46.33;101470.61;5183497;55;1141031;-75
2021/05/30 17:19:14;;;;;;;14.05;5.40;;;;;;;19.86;46.67;101472.06;5183628;55;1141030;-75
2021/05/30 17:24:21;;;;;;;12.13;6.53;;;;;;;19.76;46.81;101474.51;5182969;55;1140977;-81
2021/05/30 17:29:27;;;;;;;10.96;6.12;;;;;;;19.66;47.01;101476.79;5183987;55;1141162;-75
2021/05/30 17:34:33;;;;;;;5.20;3.47;;;;;;;19.59;47.56;101475.70;5184106;55;1141038;-76
2021/05/30 17:39:39;;;;;;;13.45;5.12;;;;;;;19.45;47.19;101473.53;5209861;56;1138926;-77
2021/05/30 17:44:45;;;;;;;4.92;3.10;;;;;;;19.38;47.32;101471.63;5209437;55;1140978;-76
2021/05/30 17:49:51;;;;;;;13.53;4.70;;;;;;;19.24;47.31;101468.48;5210221;55;1139342;-77
2021/05/30 17:54:58;;;;;;;6.20;4.28;;;;;;;19.11;47.51;101468.48;5209768;55;1141217;-79
2021/05/30 18:00:07;;;;;;;9.08;6.72;;;;;;;19.00;47.77;101471.38;5209689;56;1139358;-77
2021/05/30 18:05:13;;;;;;;13.72;9.35;;;;;;;18.85;47.90;101465.69;5209947;55;1138993;-76
2021/05/30 18:10:19;;;;;;;18.60;6.47;;;;;;;18.71;48.34;101475.56;5209731;55;1141128;-74
2021/05/30 18:15:25;;;;;;;8.48;5.15;;;;;;;18.62;48.66;101478.65;5209234;55;1140445;-77
2021/05/30 18:20:32;;;;;;;4.90;3.70;;;;;;;18.56;48.83;101477.36;5208591;56;1138391;-72
2021/05/30 18:25:42;;;;;;;3.83;3.52;;;;;;;18.48;49.12;101480.44;5209498;55;1138340;-74
2021/05/30 18:30:51;;;;;;;5.15;2.98;;;;;;;18.32;49.18;101479.72;5209347;56;1138394;-78
2021/05/30 18:35:57;;;;;;;6.80;3.75;;;;;;;18.18;49.43;101478.84;5206496;55;1138572;-73
2021/05/30 18:41:05;;;;;;;10.28;6.00;;;;;;;18.07;49.81;101482.50;5190268;55;1138880;-78
2021/05/30 18:46:10;;;;;;;12.18;9.28;;;;;;;17.96;50.21;101491.20;5178252;56;1140697;-80
2021/05/30 18:51:24;;;;;;;28.98;15.43;;;;;;;17.94;50.41;101492.67;5208507;55;1140959;-78
2021/05/30 18:56:35;;;;;;;30.93;18.33;;;;;;;17.83;50.25;101495.02;5183089;55;1142835;-80
2021/05/30 19:01:42;;;;;;;20.07;11.03;;;;;;;17.65;50.25;101490.52;5182103;55;1142849;-80
2021/05/30 19:06:47;;;;;;;11.77;5.90;;;;;;;17.49;50.67;101503.08;5205408;55;1142587;-80
2021/05/30 19:11:56;;;;;;;27.83;14.80;;;;;;;17.33;50.70;101507.63;5149005;55;1140547;-77
2021/05/30 19:17:05;;;;;;;26.50;14.07;;;;;;;17.17;50.90;101509.50;5109980;55;1184001;-80
2021/05/30 19:22:13;;;;;;;22.93;13.97;;;;;;;17.08;51.34;101515.69;5119591;55;1142619;-78
2021/05/30 19:27:19;;;;;;;30.23;18.90;;;;;;;16.98;51.92;101521.96;5119497;55;1143072;-80
2021/05/30 19:32:25;;;;;;;16.60;11.20;;;;;;;16.81;52.01;101530.12;5119769;56;1142847;-76
2021/05/30 19:37:33;;;;;;;10.87;4.43;;;;;;;16.62;52.18;101542.91;5193891;55;1143114;-81
2021/05/30 19:42:39;;;;;;;4.13;3.60;;;;;;;16.41;52.22;101547.41;5203625;56;1140772;-77
2021/05/30 19:47:45;;;;;;;5.60;2.33;;;;;;;16.30;52.68;101543.00;5208882;56;1139036;-77
2021/05/30 19:52:52;;;;;;;3.03;2.37;;;;;;;16.20;52.48;101546.07;5208216;55;1139628;-84
2021/05/30 19:57:58;;;;;;;6.00;3.27;;;;;;;16.07;52.69;101550.27;5207911;55;1139230;-79
2021/05/30 20:03:03;;;;;;;7.27;4.60;;;;;;;15.99;52.81;101558.58;5209264;56;1138993;-78
2021/05/30 20:08:09;;;;;;;17.03;5.30;;;;;;;15.99;53.40;101562.09;5190006;56;1138700;-77
2021/05/30 20:13:15;;;;;;;11.17;6.50;;;;;;;15.94;53.58;101558.95;5174883;55;1140721;-78
2021/05/30 20:18:21;;;;;;;4.05;3.65;;;;;;;15.96;53.79;101562.83;5128775;55;1140912;-76
2021/05/30 20:23:28;;;;;;;2.33;2.10;;;;;;;15.80;53.53;101562.77;5153185;55;1138591;-78
2021/05/30 20:28:40;;;;;;;4.43;2.30;;;;;;;15.58;53.48;101575.35;5204039;55;1138624;-81
2021/05/30 20:33:41;;;;;;;5.47;2.43;;;;;;;15.26;53.17;101572.11;5211980;55;1138981;-78
2021/05/30 20:38:48;;;;;;;8.13;2.50;;;;;;;15.02;53.45;101584.23;5212155;56;1139068;-74
2021/05/30 20:43:55;;;;;;;3.70;1.90;;;;;;;14.73;53.23;101586.52;5188462;55;1139131;-77
2021/05/30 20:49:01;;;;;;;2.17;1.60;;;;;;;14.56;53.16;101594.97;5185820;55;1139105;-73
2021/05/30 20:54:08;;;;;;;5.90;2.10;;;;;;;14.35;53.00;101594.79;5185910;55;1139254;-77
2021/05/30 20:59:14;;;;;;;1.50;1.40;;;;;;;14.25;53.29;101602.23;5185784;55;1139036;-77
2021/05/30 21:04:20;;;;;;;3.80;2.03;;;;;;;14.10;53.36;101605.57;5185961;55;1138935;-78
2021/05/30 21:09:27;;;;;;;7.03;1.73;;;;;;;13.96;53.45;101612.41;5185500;55;1139124;-76
2021/05/30 21:14:33;;;;;;;3.00;1.97;;;;;;;13.83;53.58;101616.94;5185504;55;1138821;-76
2021/05/30 21:19:39;;;;;;;8.97;2.63;;;;;;;13.67;53.76;101615.89;5185506;55;1138887;-75
2021/05/30 21:24:45;;;;;;;8.80;2.40;;;;;;;13.73;54.38;101611.46;5185601;55;1138958;-76
2021/05/30 21:29:51;;;;;;;5.37;1.80;;;;;;;13.62;54.23;101619.35;5185770;55;1138954;-79
2021/05/30 21:34:58;;;;;;;4.57;1.80;;;;;;;13.48;54.65;101626.15;5185599;55;1138916;-77
2021/05/30 21:40:08;;;;;;;6.10;1.82;;;;;;;13.36;54.94;101626.08;5195146;55;1147609;-76
2021/05/30 21:45:15;;;;;;;4.42;2.10;;;;;;;13.28;55.12;101627.59;5185666;55;1139432;-75
2021/05/30 21:50:22;;;;;;;2.43;1.97;;;;;;;13.41;55.50;101644.36;5185896;55;1139347;-77
2021/05/30 21:55:28;;;;;;;5.73;2.43;;;;;;;13.41;55.46;101647.50;5185190;55;1139348;-77
2021/05/30 22:00:36;;;;;;;6.83;2.63;;;;;;;13.41;55.61;101644.84;5126979;55;1138955;-73
2021/05/30 22:05:46;;;;;;;20.93;7.10;;;;;;;13.47;56.10;101650.55;5100347;56;1138858;-76
2021/05/30 22:10:53;;;;;;;8.93;3.20;;;;;;;13.44;56.05;101656.59;5095259;56;1141013;-78
2021/05/30 22:16:00;;;;;;;5.90;2.60;;;;;;;13.34;56.00;101647.07;5100073;56;1139291;-79
2021/05/30 22:21:09;;;;;;;10.13;4.03;;;;;;;13.32;56.14;101645.84;5099846;56;1138914;-77
2021/05/30 22:26:16;;;;;;;13.32;4.78;;;;;;;13.34;56.55;101652.39;5121385;55;1140963;-80
2021/05/30 22:31:22;;;;;;;11.88;5.72;;;;;;;13.30;56.46;101650.42;5176589;55;1141084;-75
2021/05/30 22:36:28;;;;;;;7.60;4.30;;;;;;;13.13;56.68;101652.56;5185044;55;1140852;-74
2021/05/30 22:41:35;;;;;;;8.97;4.10;;;;;;;13.10;57.00;101643.47;5185498;55;1138758;-73
2021/05/30 22:46:41;;;;;;;10.77;4.77;;;;;;;13.10;57.23;101648.78;5205696;55;1138859;-77
2021/05/30 22:51:47;;;;;;;14.47;7.50;;;;;;;12.84;57.06;101650.58;5211558;55;1140810;-77
2021/05/30 22:56:53;;;;;;;10.20;6.70;;;;;;;12.45;56.88;101649.70;5211374;55;1141230;-76
2021/05/30 23:01:59;;;;;;;9.10;4.40;;;;;;;12.01;57.35;101650.01;5211830;56;1140467;-78
2021/05/30 23:07:06;;;;;;;12.25;5.85;;;;;;;11.89;58.01;101647.69;5201660;55;1138481;-76
2021/05/30 23:12:13;;;;;;;9.03;5.72;;;;;;;11.81;58.63;101639.37;5197235;55;1140766;-80
2021/05/30 23:17:19;;;;;;;7.45;4.65;;;;;;;11.92;59.03;101640.84;5212995;55;1138496;-78
2021/05/30 23:22:24;;;;;;;13.40;6.15;;;;;;;11.86;58.99;101644.38;5212642;56;1139368;-76
2021/05/30 23:27:30;;;;;;;12.27;5.77;;;;;;;11.67;58.99;101634.55;5212655;55;1140498;-73